Time;durP1;ratioP1;P1;durP2;ratioP2;P2;SDS_P1;SDS_P2;PMS_P1;PMS_P2;Temp;Humidity;BMP_temperature;BMP_pressure;BME280_temperature;BME280_humidity;BME280_pressure;Samples;Min_cycle;Max_cycle;Signal;HPM_P1;HPM_P2
2021/03/19 00:01:20;;;;;;;;;;;1.10;99.90;;;;;;5090064;28;19912;-75
2021/03/19 00:03:46;;;;;;;;;;;1.10;99.90;;;;;;5088584;28;20410;-77
2021/03/19 00:06:11;;;;;;;;;;;1.10;99.90;;;;;;5089806;28;19915;-76
2021/03/19 00:08:37;;;;;;;;;;;1.00;99.90;;;;;;5092412;28;19951;-76
2021/03/19 00:11:02;;;;;;;;;;;1.10;99.90;;;;;;5093219;28;19915;-76
2021/03/19 00:13:28;;;;;;;;;;;1.10;99.90;;;;;;5093181;28;19961;-77
2021/03/19 00:15:53;;;;;;;;;;;1.20;99.90;;;;;;5092495;28;20068;-76
2021/03/19 00:18:19;;;;;;;;;;;1.20;99.90;;;;;;5100585;28;19912;-76
2021/03/19 00:20:45;;;;;;;;;;;1.20;99.90;;;;;;5113160;28;19930;-76
2021/03/19 00:23:11;;;;;;;;;;;1.30;99.90;;;;;;5112296;28;19943;-77
2021/03/19 00:25:37;;;;;;;;;;;1.30;99.90;;;;;;5113135;28;19908;-76
2021/03/19 00:28:04;;;;;;;;;;;1.30;99.90;;;;;;5113414;28;19912;-76
2021/03/19 00:30:29;;;;;;;;;;;1.30;99.90;;;;;;5112469;28;20011;-76
2021/03/19 00:32:55;;;;;;;;;;;1.30;99.90;;;;;;5113967;28;19943;-76
2021/03/19 00:35:21;;;;;;;;;;;1.30;99.90;;;;;;5113731;28;19967;-76
2021/03/19 00:37:46;;;;;;;;;;;1.30;99.90;;;;;;5112575;28;19951;-76
2021/03/19 00:40:13;;;;;;;;;;;1.30;99.90;;;;;;5113068;28;19991;-76
2021/03/19 00:42:39;;;;;;;;;;;1.30;99.90;;;;;;5113062;28;19975;-76
2021/03/19 00:45:05;;;;;;;;;;;1.20;99.90;;;;;;5112928;28;19912;-76
2021/03/19 00:47:31;;;;;;;;;;;1.20;99.90;;;;;;5103754;28;19920;-76
2021/03/19 00:49:57;;;;;;;;;;;1.30;99.90;;;;;;5106565;28;19908;-76
2021/03/19 00:52:22;;;;;;;;;;;1.20;99.90;;;;;;5113343;28;20000;-76
2021/03/19 00:54:48;;;;;;;;;;;1.20;99.90;;;;;;5112867;28;20407;-76
2021/03/19 00:57:13;;;;;;;;;;;1.20;99.90;;;;;;5112542;28;19908;-76
2021/03/19 00:59:39;;;;;;;;;;;1.20;99.90;;;;;;5112845;28;19933;-76
2021/03/19 01:02:04;;;;;;;;;;;1.20;99.90;;;;;;5111685;28;19915;-77
2021/03/19 01:04:30;;;;;;;;;;;1.10;99.90;;;;;;5112825;28;19912;-76
2021/03/19 01:06:55;;;;;;;;;;;1.20;99.90;;;;;;5112274;28;20710;-76
2021/03/19 01:09:21;;;;;;;;;;;1.10;99.90;;;;;;5112679;28;19942;-76
2021/03/19 01:11:46;;;;;;;;;;;1.10;99.90;;;;;;5112638;28;20007;-76
2021/03/19 01:14:13;;;;;;;;;;;1.10;99.90;;;;;;5112575;28;19931;-76
2021/03/19 01:16:38;;;;;;;;;;;1.10;99.90;;;;;;5109852;28;19948;-76
2021/03/19 01:19:04;;;;;;;;;;;1.20;99.90;;;;;;5091774;28;20396;-76
2021/03/19 01:21:30;;;;;;;;;;;1.10;99.90;;;;;;5091815;28;19916;-76
2021/03/19 01:23:55;;;;;;;;;;;1.20;99.90;;;;;;5092254;28;19920;-76
2021/03/19 01:26:21;;;;;;;;;;;1.10;99.90;;;;;;5091794;28;19908;-76
2021/03/19 01:28:46;;;;;;;;;;;1.10;99.90;;;;;;5090688;28;19969;-76
2021/03/19 01:31:12;;;;;;;;;;;1.10;99.90;;;;;;5092257;28;20184;-76
2021/03/19 01:33:37;;;;;;;;;;;1.10;99.90;;;;;;5091201;28;19931;-77
2021/03/19 01:36:06;;;;;;;;;;;1.10;99.90;;;;;;5083239;28;19966;-76
2021/03/19 01:38:32;;;;;;;;;;;1.10;99.90;;;;;;5090479;28;19935;-76
2021/03/19 01:40:58;;;;;;;;;;;1.00;99.90;;;;;;5090327;28;19912;-76
2021/03/19 01:43:23;;;;;;;;;;;1.00;99.90;;;;;;5092122;28;20412;-76
2021/03/19 01:46:08;;;;;;;;;;;1.00;99.90;;;;;;5091269;28;20327;-76
2021/03/19 01:48:52;;;;;;;;;;;1.00;99.90;;;;;;5091519;28;19908;-76
2021/03/19 01:51:36;;;;;;;;;;;1.00;99.90;;;;;;5091617;28;20292;-76
2021/03/19 01:54:20;;;;;;;;;;;1.00;99.90;;;;;;5091565;28;19947;-76
2021/03/19 01:57:04;;;;;;;;;;;0.90;99.90;;;;;;5090924;28;19908;-76
2021/03/19 01:59:48;;;;;;;;;;;0.90;99.90;;;;;;5091416;28;19955;-76
2021/03/19 02:02:32;;;;;;;;;;;0.90;99.90;;;;;;5089827;28;19916;-76
2021/03/19 02:05:16;;;;;;;;;;;0.90;99.90;;;;;;5091194;28;19908;-76
2021/03/19 02:08:00;;;;;;;;;;;0.80;99.90;;;;;;5091085;28;19953;-76
2021/03/19 02:10:44;;;;;;;;;;;0.80;99.90;;;;;;5091392;28;19912;-76
2021/03/19 02:13:28;;;;;;;;;;;0.80;99.90;;;;;;5091360;28;19952;-76
2021/03/19 02:16:12;;;;;;;;;;;0.70;99.90;;;;;;5090779;28;19909;-76
2021/03/19 02:18:56;;;;;;;;;;;0.70;99.90;;;;;;5091285;28;20443;-76
2021/03/19 02:21:40;;;;;;;;;;;0.60;99.90;;;;;;5091610;28;20387;-76
2021/03/19 02:24:24;;;;;;;;;;;0.50;99.90;;;;;;5091384;28;19912;-76
2021/03/19 02:27:08;;;;;;;;;;;0.40;99.90;;;;;;5090950;28;19977;-76
2021/03/19 02:29:52;;;;;;;;;;;0.40;99.90;;;;;;5091104;28;20333;-76
2021/03/19 02:32:23;;;;;;;;;;;0.40;99.90;;;;;;5090303;28;19915;-76
2021/03/19 02:34:51;;;;;;;;;;;0.40;99.90;;;;;;5091249;28;19916;-76
2021/03/19 02:37:18;;;;;;;;;;;0.40;99.90;;;;;;5090697;28;19908;-76
2021/03/19 02:39:44;;;;;;;;;;;0.40;99.90;;;;;;5091029;28;19912;-74
2021/03/19 02:42:10;;;;;;;;;;;0.40;99.90;;;;;;5090996;28;20015;-76
2021/03/19 02:44:36;;;;;;;;;;;0.40;99.90;;;;;;5089620;28;19908;-76
2021/03/19 02:47:03;;;;;;;;;;;0.40;99.90;;;;;;5094203;28;20326;-76
2021/03/19 02:49:28;;;;;;;;;;;0.40;99.90;;;;;;5095003;28;19915;-76
2021/03/19 02:51:55;;;;;;;;;;;0.40;99.90;;;;;;5094875;28;19908;-76
2021/03/19 02:54:21;;;;;;;;;;;0.40;99.90;;;;;;5094869;28;19912;-76
2021/03/19 02:56:46;;;;;;;;;;;0.40;99.90;;;;;;5094519;28;19924;-76
2021/03/19 02:59:12;;;;;;;;;;;0.50;99.90;;;;;;5094545;28;20395;-76
2021/03/19 03:01:37;;;;;;;;;;;0.50;99.90;;;;;;5094594;28;19919;-76
2021/03/19 03:04:03;;;;;;;;;;;0.50;99.90;;;;;;5094530;28;20268;-76
2021/03/19 03:06:36;;;;;;;;;;;0.50;99.90;;;;;;5094200;28;20400;-76
2021/03/19 03:09:01;;;;;;;;;;;0.50;99.90;;;;;;5094455;28;19915;-76
2021/03/19 03:11:27;;;;;;;;;;;0.50;99.90;;;;;;5094564;28;19908;-76
2021/03/19 03:13:52;;;;;;;;;;;0.60;99.90;;;;;;5094303;28;19908;-76
2021/03/19 03:16:18;;;;;;;;;;;0.50;99.90;;;;;;5094208;28;20340;-76
2021/03/19 03:18:43;;;;;;;;;;;0.50;99.90;;;;;;5094557;28;19912;-76
2021/03/19 03:21:09;;;;;;;;;;;0.60;99.90;;;;;;5096547;28;20007;-76
2021/03/19 03:23:34;;;;;;;;;;;0.50;99.90;;;;;;5096536;28;20327;-76
2021/03/19 03:26:00;;;;;;;;;;;0.50;99.90;;;;;;5094023;28;20369;-76
2021/03/19 03:28:25;;;;;;;;;;;0.50;99.90;;;;;;5093875;28;19914;-76
2021/03/19 03:30:55;;;;;;;;;;;0.50;99.90;;;;;;5093748;28;19908;-76
2021/03/19 03:33:21;;;;;;;;;;;0.40;99.90;;;;;;5093899;28;19916;-76
2021/03/19 03:35:47;;;;;;;;;;;0.40;99.90;;;;;;5093683;28;20392;-76
2021/03/19 03:38:15;;;;;;;;;;;0.40;99.90;;;;;;5093938;28;20336;-76
2021/03/19 03:40:45;;;;;;;;;;;0.30;99.90;;;;;;5093943;28;20407;-76
2021/03/19 03:43:13;;;;;;;;;;;0.20;99.90;;;;;;5093724;28;19969;-76
2021/03/19 03:45:39;;;;;;;;;;;0.20;99.90;;;;;;5093670;28;19965;-76
2021/03/19 03:48:05;;;;;;;;;;;0.10;99.90;;;;;;5093719;28;19908;-76
2021/03/19 03:50:30;;;;;;;;;;;0.10;99.90;;;;;;5093739;28;19919;-76
2021/03/19 03:52:56;;;;;;;;;;;0.10;99.90;;;;;;5093554;28;20380;-76
2021/03/19 03:55:22;;;;;;;;;;;0.10;99.90;;;;;;5093567;28;20003;-76
2021/03/19 03:57:47;;;;;;;;;;;0.00;99.90;;;;;;5091972;28;20269;-76
2021/03/19 04:00:14;;;;;;;;;;;-0.10;99.90;;;;;;5093339;28;19908;-76
2021/03/19 04:02:40;;;;;;;;;;;-0.20;99.90;;;;;;5084789;28;19912;-76
2021/03/19 04:05:06;;;;;;;;;;;-0.20;99.90;;;;;;5093346;28;19912;-76
2021/03/19 04:07:32;;;;;;;;;;;-0.20;99.90;;;;;;5092944;28;20006;-76
2021/03/19 04:09:57;;;;;;;;;;;-0.20;99.90;;;;;;5093331;28;19988;-76
2021/03/19 04:12:23;;;;;;;;;;;-0.30;99.90;;;;;;5092864;28;19919;-76
2021/03/19 04:14:48;;;;;;;;;;;-0.30;99.90;;;;;;5093191;28;19915;-76
2021/03/19 04:17:27;;;;;;;;;;;-0.30;99.90;;;;;;5092667;28;19908;-76
2021/03/19 04:19:53;;;;;;;;;;;-0.40;99.90;;;;;;5093043;28;19965;-76
2021/03/19 04:22:19;;;;;;;;;;;-0.40;99.90;;;;;;5084428;28;19917;-76
2021/03/19 04:24:45;;;;;;;;;;;-0.40;99.90;;;;;;5092825;28;20379;-76
2021/03/19 04:27:15;;;;;;;;;;;-0.50;99.90;;;;;;5092577;28;19912;-76
2021/03/19 04:29:41;;;;;;;;;;;-0.50;99.90;;;;;;5092964;28;20010;-76
2021/03/19 04:32:06;;;;;;;;;;;-0.50;99.90;;;;;;5092889;28;19958;-76
2021/03/19 04:34:32;;;;;;;;;;;-0.50;99.90;;;;;;5092798;28;19912;-76
2021/03/19 04:36:57;;;;;;;;;;;-0.50;99.90;;;;;;5092533;28;20051;-76
2021/03/19 04:39:26;;;;;;;;;;;-0.40;99.90;;;;;;5092557;28;20273;-76
2021/03/19 04:41:54;;;;;;;;;;;-0.40;99.90;;;;;;5092774;28;20287;-76
2021/03/19 04:44:20;;;;;;;;;;;-0.30;99.90;;;;;;5092762;28;19908;-76
2021/03/19 04:46:46;;;;;;;;;;;-0.30;99.90;;;;;;5092297;28;20369;-77
2021/03/19 04:49:11;;;;;;;;;;;-0.30;99.90;;;;;;5092488;28;19908;-76
2021/03/19 04:51:37;;;;;;;;;;;-0.30;99.90;;;;;;5089780;28;19908;-76
2021/03/19 04:54:03;;;;;;;;;;;-0.30;99.90;;;;;;5087137;28;19915;-76
2021/03/19 04:56:28;;;;;;;;;;;-0.30;99.90;;;;;;5091864;28;19908;-76
2021/03/19 04:58:54;;;;;;;;;;;-0.30;99.90;;;;;;5092276;28;20288;-76
2021/03/19 05:01:20;;;;;;;;;;;-0.20;99.90;;;;;;5092274;28;19998;-76
2021/03/19 05:03:45;;;;;;;;;;;-0.20;99.90;;;;;;5092351;28;19961;-76
2021/03/19 05:06:13;;;;;;;;;;;-0.20;99.90;;;;;;5091905;28;19957;-76
2021/03/19 05:08:39;;;;;;;;;;;-0.20;99.90;;;;;;5091960;28;20002;-76
2021/03/19 05:11:04;;;;;;;;;;;-0.10;99.90;;;;;;5092154;28;20397;-76
2021/03/19 05:13:30;;;;;;;;;;;-0.10;99.90;;;;;;5092349;28;19935;-76
2021/03/19 05:15:55;;;;;;;;;;;0.00;99.90;;;;;;5091720;28;19991;-76
2021/03/19 05:18:21;;;;;;;;;;;0.00;99.90;;;;;;5083824;28;19919;-76
2021/03/19 05:20:46;;;;;;;;;;;0.00;99.90;;;;;;5092306;28;19908;-76
2021/03/19 05:23:32;;;;;;;;;;;0.10;99.90;;;;;;5090668;28;19908;-76
2021/03/19 05:25:58;;;;;;;;;;;0.10;99.90;;;;;;5091711;28;19999;-76
2021/03/19 05:28:23;;;;;;;;;;;0.10;99.90;;;;;;5090165;28;19940;-76
2021/03/19 05:30:54;;;;;;;;;;;0.10;99.90;;;;;;5098062;28;19951;-76
2021/03/19 05:33:27;;;;;;;;;;;0.10;99.90;;;;;;5094403;28;19908;-76
2021/03/19 05:35:53;;;;;;;;;;;0.20;99.90;;;;;;5091257;28;19916;-76
2021/03/19 05:38:18;;;;;;;;;;;0.20;99.90;;;;;;5091537;28;20361;-76
2021/03/19 05:40:47;;;;;;;;;;;0.20;99.90;;;;;;5091560;28;19915;-76
2021/03/19 05:43:22;;;;;;;;;;;0.20;99.90;;;;;;5091715;28;19908;-76
2021/03/19 05:45:54;;;;;;;;;;;0.20;99.90;;;;;;5091203;28;19912;-76
2021/03/19 05:48:20;;;;;;;;;;;0.20;99.90;;;;;;5091786;28;19912;-76
2021/03/19 05:50:45;;;;;;;;;;;0.30;99.90;;;;;;5091525;28;19915;-76
2021/03/19 05:53:16;;;;;;;;;;;0.30;99.90;;;;;;5091587;28;19908;-76
2021/03/19 05:55:41;;;;;;;;;;;0.30;99.90;;;;;;5090160;28;20377;-76
2021/03/19 05:58:11;;;;;;;;;;;0.40;99.90;;;;;;5086868;28;19948;-76
2021/03/19 06:00:36;;;;;;;;;;;0.40;99.90;;;;;;5102581;28;20379;-76
2021/03/19 06:03:02;;;;;;;;;;;0.40;99.90;;;;;;5111667;28;19907;-76
2021/03/19 06:05:29;;;;;;;;;;;0.40;99.90;;;;;;5111825;28;20006;-76
2021/03/19 06:07:56;;;;;;;;;;;0.40;99.90;;;;;;5111368;28;20372;-76
2021/03/19 06:10:28;;;;;;;;;;;0.50;99.90;;;;;;5110232;28;19951;-76
2021/03/19 06:13:05;;;;;;;;;;;0.50;99.90;;;;;;5088551;28;19909;-76
2021/03/19 06:15:32;;;;;;;;;;;0.50;99.90;;;;;;5086931;28;19923;-76
2021/03/19 06:18:00;;;;;;;;;;;0.60;99.90;;;;;;5089124;28;19912;-76
2021/03/19 06:20:26;;;;;;;;;;;0.60;99.90;;;;;;5092111;28;19908;-76
2021/03/19 06:22:57;;;;;;;;;;;0.60;99.90;;;;;;5095451;28;19930;-76
2021/03/19 06:25:34;;;;;;;;;;;0.70;99.90;;;;;;5084756;28;20377;-76
2021/03/19 06:28:00;;;;;;;;;;;0.70;99.90;;;;;;5088272;28;20007;-76
2021/03/19 06:30:26;;;;;;;;;;;0.70;99.90;;;;;;5094154;28;19908;-76
2021/03/19 06:33:03;;;;;;;;;;;0.80;99.90;;;;;;5094834;28;20284;-76
2021/03/19 06:35:34;;;;;;;;;;;0.80;99.90;;;;;;5094425;28;19922;-76
2021/03/19 06:38:24;;;;;;;;;;;0.80;99.90;;;;;;5094280;28;19912;-76
2021/03/19 06:40:49;;;;;;;;;;;0.80;99.90;;;;;;5094859;28;19914;-77
2021/03/19 06:43:16;;;;;;;;;;;0.80;99.90;;;;;;5095004;28;19987;-76
2021/03/19 06:45:42;;;;;;;;;;;0.90;99.90;;;;;;5094444;28;19915;-76
2021/03/19 06:48:26;;;;;;;;;;;0.80;99.90;;;;;;5094880;28;19908;-76
2021/03/19 06:50:51;;;;;;;;;;;0.90;99.90;;;;;;5095045;28;19915;-76
2021/03/19 06:53:19;;;;;;;;;;;0.90;99.90;;;;;;5093804;28;19908;-76
2021/03/19 06:55:46;;;;;;;;;;;0.90;99.90;;;;;;5093062;28;19970;-76
2021/03/19 06:58:12;;;;;;;;;;;0.90;99.90;;;;;;5094674;28;20280;-77
2021/03/19 07:00:49;;;;;;;;;;;1.00;99.90;;;;;;5094390;28;19908;-76
2021/03/19 07:03:15;;;;;;;;;;;1.00;99.90;;;;;;5094427;28;20292;-76
2021/03/19 07:05:59;;;;;;;;;;;1.00;99.90;;;;;;5094074;28;19912;-76
2021/03/19 07:08:38;;;;;;;;;;;1.00;99.90;;;;;;5094391;28;19908;-77
2021/03/19 07:11:22;;;;;;;;;;;1.00;99.90;;;;;;5094473;28;20337;-76
2021/03/19 07:14:06;;;;;;;;;;;1.00;99.90;;;;;;5094723;28;19908;-76
2021/03/19 07:16:50;;;;;;;;;;;1.00;99.90;;;;;;5094015;28;19966;-76
2021/03/19 07:19:17;;;;;;;;;;;1.10;99.90;;;;;;5094444;28;19912;-77
2021/03/19 07:22:01;;;;;;;;;;;1.10;99.90;;;;;;5094068;28;19953;-77
2021/03/19 07:24:46;;;;;;;;;;;1.20;99.90;;;;;;5093458;28;19912;-76
2021/03/19 07:27:20;;;;;;;;;;;1.30;99.90;;;;;;5093407;28;19914;-77
2021/03/19 07:30:04;;;;;;;;;;;1.30;99.90;;;;;;5093813;28;19961;-76
2021/03/19 07:32:48;;;;;;;;;;;1.40;99.90;;;;;;5092379;28;19931;-76
2021/03/19 07:35:14;;;;;;;;;;;1.40;99.90;;;;;;5093277;28;19942;-77
2021/03/19 07:37:58;;;;;;;;;;;1.40;99.90;;;;;;5093113;28;19915;-77
2021/03/19 07:40:35;;;;;;;;;;;1.50;99.90;;;;;;5093876;28;19995;-76
2021/03/19 07:43:02;;;;;;;;;;;1.50;99.90;;;;;;5093191;28;20297;-76
2021/03/19 07:45:33;;;;;;;;;;;1.50;99.90;;;;;;5093700;28;19958;-76
2021/03/19 07:48:07;;;;;;;;;;;1.70;99.90;;;;;;5093623;28;20257;-77
2021/03/19 07:50:45;;;;;;;;;;;1.80;99.90;;;;;;5093613;28;19923;-77
2021/03/19 07:53:22;;;;;;;;;;;1.90;99.90;;;;;;5089734;28;19916;-77
2021/03/19 07:55:51;;;;;;;;;;;2.00;99.90;;;;;;5090846;28;19908;-76
2021/03/19 07:58:16;;;;;;;;;;;2.00;99.90;;;;;;5092908;28;20010;-77
2021/03/19 08:00:45;;;;;;;;;;;2.00;99.90;;;;;;5093091;28;20000;-77
2021/03/19 08:03:17;;;;;;;;;;;2.00;99.90;;;;;;5088494;28;19912;-77
2021/03/19 08:05:53;;;;;;;;;;;2.00;99.90;;;;;;5093251;28;20257;-77
2021/03/19 08:08:19;;;;;;;;;;;2.10;99.90;;;;;;5091839;28;19909;-77
2021/03/19 08:10:51;;;;;;;;;;;2.10;99.90;;;;;;5089947;28;19914;-77
2021/03/19 08:13:32;;;;;;;;;;;2.10;99.90;;;;;;5089325;28;19915;-77
2021/03/19 08:16:16;;;;;;;;;;;2.20;99.90;;;;;;5088615;28;19914;-77
2021/03/19 08:18:56;;;;;;;;;;;2.20;99.90;;;;;;5086344;28;20380;-77
2021/03/19 08:21:28;;;;;;;;;;;2.20;99.90;;;;;;5089115;28;19961;-76
2021/03/19 08:24:05;;;;;;;;;;;2.20;99.90;;;;;;5089458;28;19915;-76
2021/03/19 08:27:00;;;;;;;;;;;2.30;99.90;;;;;;5090462;28;19924;-76
2021/03/19 08:29:25;;;;;;;;;;;2.40;99.90;;;;;;5083391;28;20361;-76
2021/03/19 08:32:09;;;;;;;;;;;2.40;99.90;;;;;;5092498;28;19916;-76
2021/03/19 08:34:50;;;;;;;;;;;2.50;99.90;;;;;;5091275;28;20456;-76
2021/03/19 08:37:24;;;;;;;;;;;2.50;99.90;;;;;;5092524;28;20311;-76
2021/03/19 08:39:49;;;;;;;;;;;2.60;99.90;;;;;;5092686;28;19912;-76
2021/03/19 08:42:20;;;;;;;;;;;2.60;99.90;;;;;;5092690;28;20436;-77
2021/03/19 08:44:46;;;;;;;;;;;2.60;99.90;;;;;;5092232;28;19909;-76
2021/03/19 08:47:25;;;;;;;;;;;2.60;99.90;;;;;;5089024;28;19912;-76
2021/03/19 08:49:56;;;;;;;;;;;2.60;99.90;;;;;;5091707;28;20372;-77
2021/03/19 08:52:33;;;;;;;;;;;2.70;99.90;;;;;;5092249;28;20349;-76
2021/03/19 08:55:14;;;;;;;;;;;2.70;99.90;;;;;;5091938;28;19908;-76
2021/03/19 08:57:41;;;;;;;;;;;2.70;99.90;;;;;;5091115;28;19936;-76
2021/03/19 09:00:27;;;;;;;;;;;2.80;99.90;;;;;;5091205;28;19962;-76
2021/03/19 09:02:54;;;;;;;;;;;2.90;99.90;;;;;;5069164;28;20011;-76
2021/03/19 09:05:21;;;;;;;;;;;2.90;99.90;;;;;;5071966;28;19915;-76
2021/03/19 09:08:11;;;;;;;;;;;2.90;99.90;;;;;;5071753;28;19916;-76
2021/03/19 09:10:36;;;;;;;;;;;3.00;99.90;;;;;;5071925;28;20383;-76
2021/03/19 09:13:08;;;;;;;;;;;3.00;99.90;;;;;;5071842;28;19912;-76
2021/03/19 09:15:34;;;;;;;;;;;3.00;99.90;;;;;;5071783;28;20361;-76
2021/03/19 09:18:07;;;;;;;;;;;2.90;99.90;;;;;;5081938;28;19912;-76
2021/03/19 09:20:41;;;;;;;;;;;2.90;99.90;;;;;;5099230;28;19912;-76
2021/03/19 09:23:10;;;;;;;;;;;2.90;99.90;;;;;;5091827;28;20422;-76
2021/03/19 09:25:54;;;;;;;;;;;2.90;99.90;;;;;;5091851;28;19908;-76
2021/03/19 09:28:25;;;;;;;;;;;2.80;99.90;;;;;;5091978;28;19908;-76
2021/03/19 09:31:03;;;;;;;;;;;2.60;99.90;;;;;;5091573;28;19927;-76
2021/03/19 09:33:43;;;;;;;;;;;2.50;99.90;;;;;;5089020;28;19908;-76
2021/03/19 09:36:27;;;;;;;;;;;2.40;99.90;;;;;;5086940;28;19922;-76
2021/03/19 09:38:53;;;;;;;;;;;2.40;99.90;;;;;;5092072;28;20332;-76
2021/03/19 09:41:38;;;;;;;;;;;2.40;99.90;;;;;;5091542;28;19934;-76
2021/03/19 09:44:24;;;;;;;;;;;2.30;99.90;;;;;;5091459;28;19908;-76
2021/03/19 09:46:57;;;;;;;;;;;2.20;99.90;;;;;;5091083;28;20387;-76
2021/03/19 09:49:27;;;;;;;;;;;2.20;99.90;;;;;;5090370;28;19908;-76
2021/03/19 09:51:53;;;;;;;;;;;2.10;99.90;;;;;;5090405;28;20269;-76
2021/03/19 09:54:30;;;;;;;;;;;2.10;99.90;;;;;;5091228;28;19934;-76
2021/03/19 09:57:02;;;;;;;;;;;2.10;99.90;;;;;;5090710;28;20020;-76
2021/03/19 09:59:30;;;;;;;;;;;2.20;99.90;;;;;;5089969;28;20074;-75
2021/03/19 10:01:57;;;;;;;;;;;2.40;99.90;;;;;;5091222;28;19912;-75
2021/03/19 10:04:36;;;;;;;;;;;2.50;99.90;;;;;;5082698;28;19908;-78
2021/03/19 10:07:12;;;;;;;;;;;2.50;99.90;;;;;;5090772;28;19934;-75
2021/03/19 10:09:40;;;;;;;;;;;2.60;99.90;;;;;;5091243;28;19952;-76
2021/03/19 10:12:12;;;;;;;;;;;2.60;99.90;;;;;;5091268;28;19908;-75
2021/03/19 10:14:39;;;;;;;;;;;2.80;99.90;;;;;;5091213;28;19915;-75
2021/03/19 10:17:11;;;;;;;;;;;2.90;99.90;;;;;;5090345;28;19912;-76
2021/03/19 10:19:38;;;;;;;;;;;2.90;99.90;;;;;;5090989;28;20349;-75
2021/03/19 10:22:04;;;;;;;;;;;2.90;99.90;;;;;;5089782;28;19908;-76
2021/03/19 10:24:30;;;;;;;;;;;2.90;99.90;;;;;;5091316;28;19908;-75
2021/03/19 10:26:59;;;;;;;;;;;2.80;99.90;;;;;;5090717;28;19914;-76
2021/03/19 10:29:26;;;;;;;;;;;2.80;99.90;;;;;;5088508;28;19999;-76
2021/03/19 10:31:53;;;;;;;;;;;2.80;99.90;;;;;;5087531;28;19955;-75
2021/03/19 10:34:19;;;;;;;;;;;2.70;99.90;;;;;;5082129;28;19908;-79
2021/03/19 10:36:58;;;;;;;;;;;2.60;99.90;;;;;;5090486;28;19919;-75
2021/03/19 10:39:29;;;;;;;;;;;2.50;99.90;;;;;;5090990;28;19912;-76
2021/03/19 10:41:57;;;;;;;;;;;2.30;99.90;;;;;;5090898;28;19911;-76
2021/03/19 10:44:23;;;;;;;;;;;2.30;99.90;;;;;;5090933;28;19909;-77
2021/03/19 10:46:53;;;;;;;;;;;2.50;99.90;;;;;;5090716;28;19914;-77
2021/03/19 10:49:22;;;;;;;;;;;2.90;99.90;;;;;;5091059;28;19908;-77
2021/03/19 10:51:50;;;;;;;;;;;3.60;99.90;;;;;;5090852;28;19959;-77
2021/03/19 10:54:25;;;;;;;;;;;4.20;99.90;;;;;;5090820;28;19961;-77
2021/03/19 10:56:55;;;;;;;;;;;4.80;99.90;;;;;;5090547;28;20353;-77
2021/03/19 10:59:20;;;;;;;;;;;5.30;99.90;;;;;;5090979;28;19920;-77
2021/03/19 11:01:49;;;;;;;;;;;6.10;99.90;;;;;;5090874;28;19915;-77
2021/03/19 11:04:34;;;;;;;;;;;6.60;99.90;;;;;;5081014;28;19915;-77
2021/03/19 11:07:15;;;;;;;;;;;6.60;99.90;;;;;;5091999;28;19912;-77
2021/03/19 11:09:58;;;;;;;;;;;6.30;99.90;;;;;;5094498;28;20368;-77
2021/03/19 11:12:30;;;;;;;;;;;5.90;99.90;;;;;;5094538;28;19908;-77
2021/03/19 11:14:57;;;;;;;;;;;5.60;99.90;;;;;;5094260;28;19908;-77
2021/03/19 11:17:22;;;;;;;;;;;5.40;99.90;;;;;;5093797;28;19912;-77
2021/03/19 11:19:59;;;;;;;;;;;5.30;99.90;;;;;;5094279;28;19912;-77
2021/03/19 11:22:31;;;;;;;;;;;5.10;99.90;;;;;;5094087;28;19915;-77
2021/03/19 11:25:07;;;;;;;;;;;5.00;99.90;;;;;;5093678;28;19908;-77
2021/03/19 11:27:38;;;;;;;;;;;5.00;99.90;;;;;;5092405;28;19915;-77
2021/03/19 11:30:09;;;;;;;;;;;5.00;99.90;;;;;;5092916;28;19908;-77
2021/03/19 11:32:35;;;;;;;;;;;4.80;99.90;;;;;;5094065;28;19960;-77
2021/03/19 11:35:18;;;;;;;;;;;4.70;99.90;;;;;;5085767;28;20358;-77
2021/03/19 11:37:46;;;;;;;;;;;4.60;99.90;;;;;;5093299;28;19909;-77
2021/03/19 11:40:20;;;;;;;;;;;4.50;99.90;;;;;;5092598;28;20296;-77
2021/03/19 11:42:53;;;;;;;;;;;4.60;99.90;;;;;;5093841;28;19915;-77
2021/03/19 11:45:23;;;;;;;;;;;4.50;99.90;;;;;;5093893;28;20281;-77
2021/03/19 11:47:57;;;;;;;;;;;4.20;99.90;;;;;;5093415;28;19915;-77
2021/03/19 11:50:23;;;;;;;;;;;3.90;99.90;;;;;;5093796;28;20437;-77
2021/03/19 11:53:03;;;;;;;;;;;3.70;99.90;;;;;;5093719;28;19957;-77
2021/03/19 11:55:29;;;;;;;;;;;3.40;99.90;;;;;;5093750;28;20000;-77
2021/03/19 11:57:55;;;;;;;;;;;3.30;99.90;;;;;;5093538;28;20368;-77
2021/03/19 12:00:22;;;;;;;;;;;3.10;99.90;;;;;;5093739;28;19991;-77
2021/03/19 12:02:51;;;;;;;;;;;3.10;99.90;;;;;;5093483;28;19908;-77
2021/03/19 12:05:19;;;;;;;;;;;3.00;99.90;;;;;;5084790;28;19908;-77
2021/03/19 12:07:45;;;;;;;;;;;2.90;99.90;;;;;;5088934;28;20002;-77
2021/03/19 12:10:11;;;;;;;;;;;2.80;99.90;;;;;;5089034;28;19962;-77
2021/03/19 12:12:36;;;;;;;;;;;2.70;99.90;;;;;;5089861;28;19959;-76
2021/03/19 12:15:03;;;;;;;;;;;2.70;99.90;;;;;;5093809;28;20380;-77
2021/03/19 12:17:28;;;;;;;;;;;2.70;99.90;;;;;;5092408;28;19908;-77
2021/03/19 12:19:54;;;;;;;;;;;2.70;99.90;;;;;;5092627;28;20386;-77
2021/03/19 12:22:20;;;;;;;;;;;3.00;99.90;;;;;;5093128;28;19909;-77
2021/03/19 12:24:46;;;;;;;;;;;3.40;99.90;;;;;;5092039;28;20016;-77
2021/03/19 12:27:13;;;;;;;;;;;3.60;99.90;;;;;;5092715;28;19951;-77
2021/03/19 12:29:38;;;;;;;;;;;3.80;99.90;;;;;;5093191;28;19918;-77
2021/03/19 12:32:04;;;;;;;;;;;3.90;99.90;;;;;;5092839;28;20007;-77
2021/03/19 12:34:30;;;;;;;;;;;3.90;99.90;;;;;;5084202;28;19974;-77
2021/03/19 12:36:55;;;;;;;;;;;3.70;99.90;;;;;;5092320;28;19912;-77
2021/03/19 12:39:21;;;;;;;;;;;3.60;99.90;;;;;;5093046;28;19916;-77
2021/03/19 12:41:47;;;;;;;;;;;3.40;99.90;;;;;;5091584;28;20277;-77
2021/03/19 12:44:13;;;;;;;;;;;3.20;99.90;;;;;;5092717;28;19908;-77
2021/03/19 12:46:39;;;;;;;;;;;3.10;99.90;;;;;;5092539;28;19961;-77
2021/03/19 12:49:05;;;;;;;;;;;3.20;99.90;;;;;;5092361;28;19916;-76
2021/03/19 12:51:30;;;;;;;;;;;3.20;99.90;;;;;;5092873;28;19916;-76
2021/03/19 12:53:56;;;;;;;;;;;3.20;99.90;;;;;;5091548;28;19931;-76
2021/03/19 12:56:21;;;;;;;;;;;3.10;99.90;;;;;;5092348;28;19908;-76
2021/03/19 12:58:47;;;;;;;;;;;3.10;99.90;;;;;;5089278;28;19911;-76
2021/03/19 13:01:18;;;;;;;;;;;3.10;99.90;;;;;;5089236;28;19909;-76
2021/03/19 13:03:44;;;;;;;;;;;3.10;99.90;;;;;;5084974;28;20377;-76
2021/03/19 13:06:09;;;;;;;;;;;3.10;99.90;;;;;;5100528;28;19914;-76
2021/03/19 13:08:35;;;;;;;;;;;3.10;99.90;;;;;;5087992;28;20387;-76
2021/03/19 13:11:00;;;;;;;;;;;3.10;99.90;;;;;;5089103;28;19908;-76
2021/03/19 13:13:26;;;;;;;;;;;3.00;99.90;;;;;;5088823;28;20443;-76
2021/03/19 13:15:52;;;;;;;;;;;2.90;99.90;;;;;;5089245;28;20345;-76
2021/03/19 13:18:17;;;;;;;;;;;2.90;99.90;;;;;;5090870;28;20284;-76
2021/03/19 13:20:43;;;;;;;;;;;2.90;99.90;;;;;;5092075;28;19908;-76
2021/03/19 13:23:08;;;;;;;;;;;2.90;99.90;;;;;;5091654;28;20341;-76
2021/03/19 13:25:35;;;;;;;;;;;2.80;99.90;;;;;;5092010;28;20280;-76
2021/03/19 13:28:01;;;;;;;;;;;2.60;99.90;;;;;;5090314;28;19916;-76
2021/03/19 13:30:27;;;;;;;;;;;2.40;99.90;;;;;;5090230;28;19908;-76
2021/03/19 13:32:53;;;;;;;;;;;2.20;99.90;;;;;;5090472;28;19908;-76
2021/03/19 13:35:38;;;;;;;;;;;2.10;99.90;;;;;;5083044;28;20006;-76
2021/03/19 13:38:09;;;;;;;;;;;2.10;99.90;;;;;;5091489;28;19915;-76
2021/03/19 13:40:34;;;;;;;;;;;2.00;99.90;;;;;;5091824;28;19908;-76
2021/03/19 13:43:00;;;;;;;;;;;2.10;99.90;;;;;;5090215;28;20015;-76
2021/03/19 13:45:26;;;;;;;;;;;2.00;99.90;;;;;;5091755;28;20444;-76
2021/03/19 13:47:51;;;;;;;;;;;2.10;99.90;;;;;;5090053;28;20249;-76
2021/03/19 13:50:18;;;;;;;;;;;2.20;99.90;;;;;;5091614;28;19908;-75
2021/03/19 13:52:43;;;;;;;;;;;2.20;99.90;;;;;;5090314;28;20422;-75
2021/03/19 13:55:09;;;;;;;;;;;2.10;99.90;;;;;;5090388;28;20137;-75
2021/03/19 13:57:42;;;;;;;;;;;2.10;99.90;;;;;;5090939;28;19916;-75
2021/03/19 14:00:08;;;;;;;;;;;2.00;99.90;;;;;;5091299;28;20006;-75
2021/03/19 14:02:34;;;;;;;;;;;2.10;99.90;;;;;;5090088;28;19978;-76
2021/03/19 14:04:59;;;;;;;;;;;2.10;99.90;;;;;;5083041;28;19915;-75
2021/03/19 14:07:25;;;;;;;;;;;2.10;99.90;;;;;;5090758;28;19908;-76
2021/03/19 14:09:50;;;;;;;;;;;2.10;99.90;;;;;;5091324;28;19913;-75
2021/03/19 14:12:16;;;;;;;;;;;2.10;99.90;;;;;;5089788;28;19909;-76
2021/03/19 14:14:41;;;;;;;;;;;2.20;99.90;;;;;;5085204;28;19939;-76
2021/03/19 14:17:07;;;;;;;;;;;2.20;99.90;;;;;;5086398;28;19930;-76
2021/03/19 14:19:32;;;;;;;;;;;2.30;99.90;;;;;;5090954;28;19912;-76
2021/03/19 14:21:58;;;;;;;;;;;2.20;99.90;;;;;;5091273;28;19908;-76
2021/03/19 14:24:23;;;;;;;;;;;2.20;99.90;;;;;;5091440;28;19986;-76
2021/03/19 14:26:49;;;;;;;;;;;2.20;99.90;;;;;;5091220;28;19915;-76
2021/03/19 14:29:14;;;;;;;;;;;2.20;99.90;;;;;;5091750;28;19912;-76
2021/03/19 14:31:40;;;;;;;;;;;2.30;99.90;;;;;;5091798;28;19961;-77
2021/03/19 14:34:05;;;;;;;;;;;2.30;99.90;;;;;;5083113;28;19908;-77
2021/03/19 14:36:31;;;;;;;;;;;2.40;99.90;;;;;;5075961;28;20365;-76
2021/03/19 14:38:58;;;;;;;;;;;2.30;99.90;;;;;;5084179;28;19913;-76
2021/03/19 14:41:25;;;;;;;;;;;2.20;99.90;;;;;;5081848;28;19999;-77
2021/03/19 14:43:50;;;;;;;;;;;2.20;99.90;;;;;;5095652;28;19916;-77